createdAt,value
2017-03-30T00:00:34.318Z,19.43
2017-03-30T00:01:34.344Z,19.47
2017-03-30T00:02:34.430Z,19.68
2017-03-30T00:03:34.785Z,17.65
2017-03-30T00:04:35.003Z,17.25
2017-03-30T00:05:35.038Z,19.98
2017-03-30T00:06:35.162Z,18.05
2017-03-30T00:07:35.150Z,16.25
2017-03-30T00:08:35.532Z,17.92
2017-03-30T00:09:35.602Z,17.75
2017-03-30T00:10:35.662Z,16.40
2017-03-30T00:11:35.698Z,15.50
2017-03-30T00:12:35.863Z,18.33
2017-03-30T00:13:36.491Z,17.68
2017-03-30T00:14:36.485Z,18.40
2017-03-30T00:15:36.544Z,15.42
2017-03-30T00:16:42.874Z,14.83
2017-03-30T00:17:42.901Z,19.25
2017-03-30T00:18:43.369Z,18.58
2017-03-30T00:19:43.331Z,16.73
2017-03-30T00:20:43.356Z,18.28
2017-03-30T00:21:43.479Z,16.33
2017-03-30T00:22:43.559Z,16.08
2017-03-30T00:23:43.873Z,15.15
2017-03-30T00:24:44.033Z,13.15
2017-03-30T00:25:44.053Z,16.50
2017-03-30T00:26:44.190Z,21.77
2017-03-30T00:27:44.218Z,16.60
2017-03-30T00:28:44.588Z,15.23
2017-03-30T00:29:44.609Z,14.85
2017-03-30T00:30:44.673Z,15.20
2017-03-30T00:31:44.743Z,17.93
2017-03-30T00:32:44.877Z,19.45
2017-03-30T00:33:45.214Z,16.03
2017-03-30T00:34:45.276Z,19.30
2017-03-30T00:35:45.458Z,19.78
2017-03-30T00:36:45.502Z,21.02
2017-03-30T00:37:45.539Z,19.05
2017-03-30T00:38:45.957Z,16.32
2017-03-30T00:39:45.967Z,19.83
2017-03-30T00:40:45.967Z,17.98
2017-03-30T00:41:45.979Z,20.92
2017-03-30T00:42:45.993Z,18.90
2017-03-30T00:43:46.375Z,17.77
2017-03-30T00:44:46.433Z,15.07
2017-03-30T00:45:46.426Z,16.62
2017-03-30T00:46:46.462Z,16.82
2017-03-30T00:47:46.441Z,19.13
2017-03-30T00:48:47.665Z,18.13
2017-03-30T00:49:47.677Z,18.60
2017-03-30T00:50:48.366Z,20.20
2017-03-30T00:51:48.393Z,19.90
2017-03-30T00:52:49.180Z,18.00
2017-03-30T00:53:50.270Z,18.98
2017-03-30T00:54:50.347Z,18.17
2017-03-30T00:55:50.402Z,19.60
2017-03-30T00:56:50.517Z,19.02
2017-03-30T00:57:50.577Z,18.28
2017-03-30T00:58:50.901Z,20.57
2017-03-30T00:59:50.917Z,21.93
2017-03-30T01:00:51.019Z,20.97
2017-03-30T01:01:51.214Z,18.68
2017-03-30T01:02:51.242Z,18.30
2017-03-30T01:03:52.467Z,18.33
2017-03-30T01:04:52.438Z,14.85
2017-03-30T01:05:52.424Z,19.13
2017-03-30T01:06:52.568Z,21.98
2017-03-30T01:07:52.694Z,19.87
2017-03-30T01:08:53.154Z,19.85
2017-03-30T01:09:53.221Z,22.83
2017-03-30T01:10:53.359Z,26.77
2017-03-30T01:11:53.366Z,21.10
2017-03-30T01:12:53.422Z,29.98
2017-03-30T01:13:53.859Z,27.80
2017-03-30T01:14:53.998Z,29.05
2017-03-30T01:15:54.001Z,26.98
2017-03-30T01:16:54.086Z,30.13
2017-03-30T01:17:54.158Z,27.47
2017-03-30T01:18:54.502Z,34.47
2017-03-30T01:19:55.447Z,29.62
2017-03-30T01:20:55.492Z,26.93
2017-03-30T01:21:55.614Z,33.72
2017-03-30T01:22:55.666Z,32.03
2017-03-30T01:23:56.100Z,33.67
2017-03-30T01:24:56.140Z,32.92
2017-03-30T01:25:56.287Z,36.75
2017-03-30T01:26:56.375Z,32.63
2017-03-30T01:27:56.563Z,36.33
2017-03-30T01:28:57.030Z,41.18
2017-03-30T01:29:57.631Z,36.22
2017-03-30T01:30:57.636Z,40.15
2017-03-30T01:31:57.747Z,35.87
2017-03-30T01:32:57.839Z,35.80
2017-03-30T01:33:58.506Z,36.43
2017-03-30T01:34:58.585Z,34.92
2017-03-30T01:35:58.786Z,41.35
2017-03-30T01:36:58.827Z,34.87
2017-03-30T01:37:59.716Z,36.88
2017-03-30T01:39:00.174Z,38.97
2017-03-30T01:40:00.254Z,40.40
2017-03-30T01:41:00.364Z,39.28
2017-03-30T01:42:00.455Z,38.68
2017-03-30T01:43:00.555Z,33.55
2017-03-30T01:44:00.993Z,42.22
2017-03-30T01:45:01.069Z,39.67
2017-03-30T01:46:01.138Z,39.58
2017-03-30T01:47:01.195Z,36.98
2017-03-30T01:48:01.146Z,39.92
2017-03-30T01:49:01.667Z,49.07
2017-03-30T01:50:02.410Z,45.97
2017-03-30T01:51:02.475Z,42.37
2017-03-30T01:52:02.515Z,42.70
2017-03-30T01:53:02.541Z,40.38
2017-03-30T01:54:02.927Z,45.43
2017-03-30T01:55:03.425Z,51.33
2017-03-30T01:56:03.410Z,46.80
2017-03-30T01:57:03.455Z,55.45
2017-03-30T01:58:03.494Z,46.70
2017-03-30T01:59:03.986Z,55.32
2017-03-30T02:00:04.054Z,53.53
2017-03-30T02:01:04.049Z,45.80
2017-03-30T02:02:04.067Z,55.65
2017-03-30T02:03:04.205Z,53.13
2017-03-30T02:04:04.645Z,51.48
2017-03-30T02:05:04.691Z,52.58
2017-03-30T02:06:04.846Z,50.58
2017-03-30T02:07:04.862Z,57.60
2017-03-30T02:08:05.601Z,56.20
2017-03-30T02:09:06.058Z,51.13
2017-03-30T02:10:06.100Z,57.20
2017-03-30T02:11:06.114Z,61.72
2017-03-30T02:12:06.861Z,49.73
2017-03-30T02:13:06.846Z,60.63
2017-03-30T02:14:07.394Z,59.62
2017-03-30T02:15:07.401Z,52.33
2017-03-30T02:16:07.428Z,62.32
2017-03-30T02:17:07.495Z,48.53
2017-03-30T02:18:07.630Z,51.73
2017-03-30T02:19:08.097Z,43.68
2017-03-30T02:20:08.113Z,53.62
2017-03-30T02:21:08.133Z,52.33
2017-03-30T02:22:08.162Z,54.28
2017-03-30T02:23:08.206Z,49.25
2017-03-30T02:24:08.547Z,56.20
2017-03-30T02:25:08.634Z,48.78
2017-03-30T02:26:08.606Z,51.60
2017-03-30T02:27:09.472Z,52.23
2017-03-30T02:28:09.494Z,51.63
2017-03-30T02:29:09.841Z,53.48
2017-03-30T02:30:09.838Z,59.35
2017-03-30T02:31:09.838Z,55.65
2017-03-30T02:32:10.559Z,54.30
2017-03-30T02:33:10.631Z,57.37
2017-03-30T02:34:11.076Z,66.18
2017-03-30T02:35:11.359Z,49.28
2017-03-30T02:36:11.408Z,52.92
2017-03-30T02:37:11.430Z,49.18
2017-03-30T02:38:11.505Z,50.90
2017-03-30T02:39:12.771Z,58.58
2017-03-30T02:40:12.825Z,64.52
2017-03-30T02:41:12.859Z,61.63
2017-03-30T02:42:13.005Z,68.90
2017-03-30T02:43:13.230Z,55.85
2017-03-30T02:44:13.550Z,59.02
2017-03-30T02:45:13.694Z,55.35
2017-03-30T02:46:13.668Z,69.78
2017-03-30T02:47:13.794Z,57.78
2017-03-30T02:48:13.981Z,52.28
2017-03-30T02:49:14.435Z,56.72
2017-03-30T02:50:14.563Z,49.50
2017-03-30T02:51:14.644Z,54.58
2017-03-30T02:52:14.790Z,62.07
2017-03-30T02:53:14.899Z,54.97
2017-03-30T02:54:15.374Z,58.87
2017-03-30T02:55:15.606Z,63.88
2017-03-30T02:56:16.434Z,56.60
2017-03-30T02:57:16.533Z,55.42
2017-03-30T02:58:16.580Z,64.32
2017-03-30T02:59:16.961Z,55.28
2017-03-30T03:00:17.048Z,49.40
2017-03-30T03:01:17.075Z,62.58
2017-03-30T03:02:17.241Z,49.98
2017-03-30T03:03:17.286Z,64.88
2017-03-30T03:04:17.608Z,50.90
2017-03-30T03:05:17.626Z,56.03
2017-03-30T03:06:17.804Z,47.13
2017-03-30T03:07:17.822Z,53.78
2017-03-30T03:08:17.961Z,55.02
2017-03-30T03:09:18.252Z,53.38
2017-03-30T03:10:18.333Z,52.25
2017-03-30T03:11:18.377Z,55.92
2017-03-30T03:12:18.419Z,58.63
2017-03-30T03:13:18.484Z,49.12
2017-03-30T03:14:18.800Z,50.35
2017-03-30T03:15:18.830Z,54.43
2017-03-30T03:16:18.862Z,61.03
2017-03-30T03:17:18.924Z,52.48
2017-03-30T03:18:19.103Z,48.63
2017-03-30T03:19:19.461Z,54.53
2017-03-30T03:20:19.480Z,47.52
2017-03-30T03:21:19.599Z,48.72
2017-03-30T03:22:19.737Z,54.15
2017-03-30T03:23:19.859Z,63.55
2017-03-30T03:24:20.296Z,52.68
2017-03-30T03:25:20.422Z,55.47
2017-03-30T03:26:21.183Z,48.30
2017-03-30T03:27:21.225Z,60.00
2017-03-30T03:28:21.240Z,48.08
2017-03-30T03:29:21.678Z,53.53
2017-03-30T03:30:21.690Z,55.25
2017-03-30T03:31:21.732Z,54.10
2017-03-30T03:32:21.749Z,70.62
2017-03-30T03:33:21.814Z,59.72
2017-03-30T03:34:22.213Z,58.65
2017-03-30T03:35:22.277Z,60.12
2017-03-30T03:36:22.422Z,51.15
2017-03-30T03:37:22.453Z,53.52
2017-03-30T03:38:22.695Z,52.27
2017-03-30T03:39:23.075Z,59.13
2017-03-30T03:40:23.308Z,46.57
2017-03-30T03:41:23.355Z,49.35
2017-03-30T03:42:23.435Z,53.20
2017-03-30T03:43:23.476Z,56.83
2017-03-30T03:44:23.942Z,57.20
2017-03-30T03:45:23.988Z,56.65
2017-03-30T03:46:24.030Z,53.43
2017-03-30T03:47:24.068Z,56.37
2017-03-30T03:48:24.122Z,51.30
2017-03-30T03:49:24.474Z,53.63
2017-03-30T03:50:24.483Z,60.80
2017-03-30T03:51:24.617Z,53.25
2017-03-30T03:52:24.650Z,50.20
2017-03-30T03:53:25.425Z,57.00
2017-03-30T03:54:25.906Z,56.33
2017-03-30T03:55:25.986Z,45.57
2017-03-30T03:56:26.050Z,59.52
2017-03-30T03:57:26.105Z,57.33
2017-03-30T03:58:26.474Z,49.58
2017-03-30T03:59:26.877Z,46.00
2017-03-30T04:00:26.937Z,54.45
2017-03-30T04:01:26.963Z,53.47
2017-03-30T04:02:27.047Z,46.02
2017-03-30T04:03:27.129Z,55.98
2017-03-30T04:04:27.524Z,60.77
2017-03-30T04:05:28.318Z,52.43
2017-03-30T04:06:28.333Z,56.83
2017-03-30T04:07:28.536Z,47.25
2017-03-30T04:08:28.610Z,55.15
2017-03-30T04:09:28.906Z,63.00
2017-03-30T04:10:28.933Z,71.45
2017-03-30T04:11:28.943Z,58.82
2017-03-30T04:12:28.983Z,50.43
2017-03-30T04:13:29.041Z,46.15
2017-03-30T04:14:29.337Z,44.93
2017-03-30T04:15:29.424Z,43.70
2017-03-30T04:16:29.463Z,49.05
2017-03-30T04:17:29.520Z,45.83
2017-03-30T04:18:29.565Z,53.90
2017-03-30T04:19:29.973Z,48.87
2017-03-30T04:20:30.016Z,55.18
2017-03-30T04:21:30.086Z,48.18
2017-03-30T04:22:30.155Z,56.72
2017-03-30T04:23:30.134Z,52.97
2017-03-30T04:24:30.631Z,47.65
2017-03-30T04:25:30.765Z,50.02
2017-03-30T04:26:30.821Z,53.17
2017-03-30T04:27:30.885Z,52.83
2017-03-30T04:28:30.882Z,52.08
2017-03-30T04:29:31.384Z,52.28
2017-03-30T04:30:31.455Z,48.00
2017-03-30T04:31:31.584Z,44.30
2017-03-30T04:32:31.663Z,50.13
2017-03-30T04:33:31.709Z,50.12
2017-03-30T04:34:32.126Z,40.52
2017-03-30T04:35:32.218Z,51.27
2017-03-30T04:36:32.898Z,54.78
2017-03-30T04:37:32.935Z,49.85
2017-03-30T04:38:32.943Z,50.00
2017-03-30T04:39:33.366Z,51.45
2017-03-30T04:40:33.446Z,49.57
2017-03-30T04:41:33.498Z,51.48
2017-03-30T04:42:33.531Z,52.95
2017-03-30T04:43:33.622Z,52.55
2017-03-30T04:44:34.104Z,49.12
2017-03-30T04:45:34.270Z,44.60
2017-03-30T04:46:34.394Z,42.43
2017-03-30T04:47:34.415Z,46.15
2017-03-30T04:48:34.523Z,43.78
2017-03-30T04:49:34.914Z,48.95
2017-03-30T04:50:34.966Z,53.03
2017-03-30T04:51:35.203Z,48.78
2017-03-30T04:52:36.134Z,44.25
2017-03-30T04:53:36.150Z,51.63
2017-03-30T04:54:36.577Z,52.00
2017-03-30T04:55:36.606Z,50.97
2017-03-30T04:56:36.805Z,48.57
2017-03-30T04:57:36.979Z,45.20
2017-03-30T04:58:37.043Z,52.18
2017-03-30T04:59:37.438Z,46.92
2017-03-30T05:00:37.482Z,46.92
2017-03-30T05:01:37.511Z,43.65
2017-03-30T05:02:37.542Z,47.75
2017-03-30T05:03:37.641Z,53.23
2017-03-30T05:04:37.994Z,47.30
2017-03-30T05:05:38.063Z,49.42
2017-03-30T05:06:38.160Z,57.98
2017-03-30T05:07:37.454Z,52.13
2017-03-30T05:08:37.522Z,44.90
2017-03-30T05:09:37.685Z,47.77
2017-03-30T05:10:38.192Z,56.53
2017-03-30T05:11:38.338Z,49.97
2017-03-30T05:12:38.472Z,52.17
2017-03-30T05:13:38.661Z,52.70
2017-03-30T05:14:38.880Z,45.95
2017-03-30T05:15:39.342Z,44.40
2017-03-30T05:16:40.162Z,48.00
2017-03-30T05:17:41.050Z,54.15
2017-03-30T05:18:41.075Z,51.47
2017-03-30T05:19:41.159Z,44.47
2017-03-30T05:20:41.754Z,48.07
2017-03-30T05:21:41.815Z,45.72
2017-03-30T05:22:41.973Z,47.50
2017-03-30T05:23:42.042Z,45.10
2017-03-30T05:24:42.106Z,45.02
2017-03-30T05:25:42.477Z,46.77
2017-03-30T05:26:42.727Z,49.07
2017-03-30T05:27:42.814Z,42.93
2017-03-30T05:28:42.921Z,50.78
2017-03-30T05:29:42.950Z,47.93
2017-03-30T05:30:43.346Z,50.17
2017-03-30T05:31:43.441Z,42.95
2017-03-30T05:32:43.589Z,46.13
2017-03-30T05:33:43.646Z,50.00
2017-03-30T05:34:44.554Z,56.57
2017-03-30T05:35:44.983Z,49.53
2017-03-30T05:36:45.771Z,48.45
2017-03-30T05:37:45.892Z,54.15
2017-03-30T05:38:46.119Z,48.95
2017-03-30T05:39:46.260Z,57.15
2017-03-30T05:40:46.693Z,45.75
2017-03-30T05:41:46.709Z,48.27
2017-03-30T05:42:46.725Z,55.88
2017-03-30T05:43:46.786Z,52.93
2017-03-30T05:44:47.595Z,51.62
2017-03-30T05:45:48.005Z,48.38
2017-03-30T05:46:48.054Z,49.37
2017-03-30T05:47:48.111Z,50.55
2017-03-30T05:48:48.254Z,48.17
2017-03-30T05:49:48.269Z,42.42
2017-03-30T05:50:48.699Z,44.42
2017-03-30T05:51:48.731Z,51.93
2017-03-30T05:52:48.813Z,48.57
2017-03-30T05:53:48.905Z,48.43
2017-03-30T05:54:49.138Z,47.00
2017-03-30T05:55:49.544Z,47.95
2017-03-30T05:56:49.609Z,53.60
2017-03-30T05:57:49.642Z,53.10
2017-03-30T05:58:49.638Z,46.85
2017-03-30T05:59:49.699Z,54.42
2017-03-30T06:00:52.135Z,43.30
2017-03-30T06:01:52.154Z,43.93
2017-03-30T06:02:52.231Z,48.23
2017-03-30T06:03:52.309Z,47.00
2017-03-30T06:04:52.358Z,45.60
2017-03-30T06:05:53.467Z,58.18
2017-03-30T06:06:53.535Z,56.08
2017-03-30T06:07:53.581Z,45.38
2017-03-30T06:08:53.653Z,50.85
2017-03-30T06:09:53.795Z,45.23
2017-03-30T06:10:54.159Z,47.57
2017-03-30T06:11:54.214Z,43.27
2017-03-30T06:12:54.355Z,48.35
2017-03-30T06:13:54.417Z,54.93
2017-03-30T06:14:54.572Z,48.73
2017-03-30T06:15:54.922Z,43.85
2017-03-30T06:16:55.035Z,51.15
2017-03-30T06:17:55.086Z,46.78
2017-03-30T06:18:55.109Z,44.32
2017-03-30T06:19:55.207Z,47.75
2017-03-30T06:20:55.826Z,43.12
2017-03-30T06:21:55.883Z,43.17
2017-03-30T06:22:55.927Z,44.78
2017-03-30T06:23:56.151Z,53.95
2017-03-30T06:24:56.259Z,44.62
2017-03-30T06:25:56.683Z,44.87
2017-03-30T06:26:57.491Z,45.32
2017-03-30T06:27:57.613Z,43.62
2017-03-30T06:28:57.642Z,50.18
2017-03-30T06:29:57.737Z,56.20
2017-03-30T06:30:58.166Z,52.45
2017-03-30T06:31:58.330Z,40.10
2017-03-30T06:32:58.390Z,53.75
2017-03-30T06:33:59.239Z,48.05
2017-03-30T06:34:59.272Z,48.48
2017-03-30T06:35:59.703Z,42.63
2017-03-30T06:36:59.770Z,48.27
2017-03-30T06:37:59.784Z,41.10
2017-03-30T06:38:59.956Z,46.47
2017-03-30T06:40:00.070Z,39.02
2017-03-30T06:41:00.570Z,46.27
2017-03-30T06:42:01.404Z,46.27
2017-03-30T06:43:01.467Z,41.13
2017-03-30T06:44:01.538Z,47.28
2017-03-30T06:45:01.811Z,42.73
2017-03-30T06:46:02.923Z,48.15
2017-03-30T06:47:02.950Z,49.28
2017-03-30T06:48:02.908Z,49.37
2017-03-30T06:49:02.967Z,44.45
2017-03-30T06:50:03.104Z,44.58
2017-03-30T06:51:03.595Z,50.37
2017-03-30T06:52:03.702Z,45.17
2017-03-30T06:53:03.702Z,45.80
2017-03-30T06:54:03.809Z,48.17
2017-03-30T06:55:03.878Z,47.83
2017-03-30T06:56:04.395Z,51.32
2017-03-30T06:57:04.526Z,51.77
2017-03-30T06:58:04.579Z,43.47
2017-03-30T06:59:04.683Z,46.23
2017-03-30T07:00:04.750Z,48.85
2017-03-30T07:01:05.201Z,40.38
2017-03-30T07:02:05.253Z,52.47
2017-03-30T07:03:05.355Z,52.65
2017-03-30T07:04:05.467Z,45.12
2017-03-30T07:05:05.557Z,49.58
2017-03-30T07:06:05.984Z,53.30
2017-03-30T07:07:06.031Z,40.88
2017-03-30T07:08:06.098Z,57.07
2017-03-30T07:09:06.242Z,44.17
2017-03-30T07:10:06.398Z,50.37
2017-03-30T07:11:07.501Z,49.23
2017-03-30T07:12:07.595Z,50.42
2017-03-30T07:13:07.698Z,46.02
2017-03-30T07:14:07.790Z,45.98
2017-03-30T07:15:07.924Z,41.45
2017-03-30T07:16:08.382Z,53.90
2017-03-30T07:17:08.475Z,47.72
2017-03-30T07:18:08.518Z,50.05
2017-03-30T07:19:08.563Z,44.47
2017-03-30T07:20:08.598Z,47.50
2017-03-30T07:21:08.958Z,48.80
2017-03-30T07:22:09.726Z,37.38
2017-03-30T07:23:11.120Z,37.03
2017-03-30T07:24:11.303Z,48.40
2017-03-30T07:25:11.346Z,41.55
2017-03-30T07:26:11.710Z,40.57
2017-03-30T07:27:11.807Z,51.20
2017-03-30T07:28:12.623Z,47.57
2017-03-30T07:29:19.551Z,50.33
2017-03-30T07:30:19.698Z,46.65
2017-03-30T07:31:20.145Z,47.30
2017-03-30T07:32:20.222Z,40.27
2017-03-30T07:33:20.406Z,39.12
2017-03-30T07:34:20.454Z,39.43
2017-03-30T07:35:20.683Z,46.15
2017-03-30T07:36:21.114Z,43.17
2017-03-30T07:37:21.947Z,37.10
2017-03-30T07:38:22.034Z,44.68
2017-03-30T07:39:22.222Z,43.95
2017-03-30T07:40:22.334Z,49.22
2017-03-30T07:41:22.783Z,44.77
2017-03-30T07:42:22.978Z,39.48
2017-03-30T07:43:23.179Z,40.68
2017-03-30T07:44:24.019Z,52.72
2017-03-30T07:45:24.232Z,44.67
2017-03-30T07:46:24.668Z,39.07
2017-03-30T07:47:24.732Z,45.13
2017-03-30T07:48:24.745Z,49.03
2017-03-30T07:49:25.520Z,43.65
2017-03-30T07:50:25.562Z,53.10
2017-03-30T07:51:25.895Z,43.15
2017-03-30T07:52:26.701Z,44.63
2017-03-30T07:53:26.730Z,45.12
2017-03-30T07:54:26.784Z,40.45
2017-03-30T07:55:26.864Z,47.57
2017-03-30T07:56:27.182Z,46.90
2017-03-30T07:57:27.264Z,45.72
2017-03-30T07:58:27.608Z,36.00
2017-03-30T07:59:27.701Z,43.90
2017-03-30T08:00:27.844Z,39.87
2017-03-30T08:01:28.314Z,44.72
2017-03-30T08:02:28.469Z,49.00
2017-03-30T08:03:28.507Z,38.85
2017-03-30T08:04:28.598Z,43.20
2017-03-30T08:05:28.655Z,41.13
2017-03-30T08:06:29.063Z,47.70
2017-03-30T08:07:29.103Z,39.12
2017-03-30T08:08:29.188Z,39.62
2017-03-30T08:09:29.461Z,37.48
2017-03-30T08:10:29.515Z,39.75
2017-03-30T08:11:29.912Z,41.73
2017-03-30T08:12:29.927Z,42.45
2017-03-30T08:13:30.747Z,44.90
2017-03-30T08:14:30.886Z,41.67
2017-03-30T08:15:31.046Z,41.63
2017-03-30T08:16:31.384Z,35.02
2017-03-30T08:17:32.223Z,39.82
2017-03-30T08:18:32.303Z,39.53
2017-03-30T08:19:32.507Z,38.15
2017-03-30T08:20:32.544Z,39.65
2017-03-30T08:21:33.633Z,44.12
2017-03-30T08:22:33.685Z,39.67
2017-03-30T08:23:33.743Z,47.45
2017-03-30T08:24:33.775Z,41.15
2017-03-30T08:25:33.876Z,44.47
2017-03-30T08:26:34.259Z,45.82
2017-03-30T08:27:34.393Z,33.93
2017-03-30T08:28:34.552Z,47.78
2017-03-30T08:29:34.723Z,37.68
2017-03-30T08:30:34.870Z,35.83
2017-03-30T08:31:35.320Z,39.47
2017-03-30T08:32:35.425Z,39.28
2017-03-30T08:33:35.473Z,40.75
2017-03-30T08:34:35.639Z,43.40
2017-03-30T08:35:35.875Z,45.43
2017-03-30T08:36:36.435Z,36.48
2017-03-30T08:37:37.226Z,38.10
2017-03-30T08:38:37.251Z,46.52
2017-03-30T08:39:38.014Z,43.45
2017-03-30T08:40:38.146Z,40.55
2017-03-30T08:41:38.607Z,39.55
2017-03-30T08:42:38.678Z,40.20
2017-03-30T08:43:38.762Z,39.52
2017-03-30T08:44:38.803Z,40.53
2017-03-30T08:45:38.854Z,34.92
2017-03-30T08:46:39.243Z,40.23
2017-03-30T08:47:39.309Z,37.23
2017-03-30T08:48:39.338Z,34.20
2017-03-30T08:49:39.452Z,37.28
2017-03-30T08:50:39.515Z,37.75
2017-03-30T08:51:39.976Z,38.60
2017-03-30T08:52:40.118Z,34.65
2017-03-30T08:53:40.932Z,37.78
2017-03-30T08:54:41.717Z,31.18
2017-03-30T08:55:41.713Z,34.92
2017-03-30T08:56:42.070Z,32.20
2017-03-30T08:57:42.183Z,33.95
2017-03-30T08:58:42.244Z,35.72
2017-03-30T08:59:43.078Z,32.95
2017-03-30T09:00:43.085Z,35.12
2017-03-30T09:01:43.384Z,36.42
2017-03-30T09:02:43.604Z,30.58
2017-03-30T09:03:43.710Z,31.25
2017-03-30T09:04:43.901Z,34.23
2017-03-30T09:05:43.956Z,30.67
2017-03-30T09:06:44.333Z,31.15
2017-03-30T09:07:44.368Z,31.35
2017-03-30T09:08:44.461Z,32.17
2017-03-30T09:09:44.582Z,35.47
2017-03-30T09:10:44.655Z,32.75
2017-03-30T09:11:45.067Z,35.95
2017-03-30T09:12:45.358Z,34.08
2017-03-30T09:13:45.337Z,30.15
2017-03-30T09:14:45.399Z,28.10
2017-03-30T09:15:45.454Z,32.02
2017-03-30T09:16:45.873Z,33.05
2017-03-30T09:17:45.903Z,33.45
2017-03-30T09:18:45.951Z,33.18
2017-03-30T09:19:46.018Z,29.47
2017-03-30T09:20:48.963Z,27.07
2017-03-30T09:21:49.299Z,35.15
2017-03-30T09:22:49.263Z,28.43
2017-03-30T09:23:49.537Z,30.43
2017-03-30T09:24:49.633Z,28.65
2017-03-30T09:25:50.458Z,34.88
2017-03-30T09:26:50.885Z,24.63
2017-03-30T09:27:50.957Z,28.93
2017-03-30T09:28:51.071Z,28.33
2017-03-30T09:29:51.087Z,26.97
2017-03-30T09:30:51.082Z,34.75
2017-03-30T09:31:51.650Z,26.50
2017-03-30T09:32:51.817Z,27.12
2017-03-30T09:33:51.970Z,29.60
2017-03-30T09:34:52.066Z,27.02
2017-03-30T09:35:52.241Z,27.40
2017-03-30T09:36:52.601Z,35.40
2017-03-30T09:37:52.627Z,21.28
2017-03-30T09:38:52.712Z,25.90
2017-03-30T09:39:52.814Z,32.37
2017-03-30T09:40:53.770Z,26.25
2017-03-30T09:41:54.257Z,30.97
2017-03-30T09:42:54.359Z,26.78
2017-03-30T09:43:54.406Z,28.77
2017-03-30T09:44:54.545Z,28.98
2017-03-30T09:45:54.631Z,23.08
2017-03-30T09:46:55.008Z,23.65
2017-03-30T09:47:55.084Z,25.90
2017-03-30T09:48:55.163Z,28.07
2017-03-30T09:49:55.252Z,25.88
2017-03-30T09:50:55.304Z,29.23
2017-03-30T09:51:55.642Z,33.60
2017-03-30T09:52:55.737Z,29.22
2017-03-30T09:53:55.797Z,28.30
2017-03-30T09:54:55.887Z,26.55
2017-03-30T09:55:55.906Z,25.37
2017-03-30T09:56:56.263Z,39.23
2017-03-30T09:57:56.331Z,25.63
2017-03-30T09:58:56.482Z,22.35
2017-03-30T09:59:56.678Z,23.20
2017-03-30T10:00:56.726Z,21.45
2017-03-30T10:01:57.245Z,25.00
2017-03-30T10:02:57.226Z,22.55
2017-03-30T10:03:57.409Z,28.48
2017-03-30T10:04:57.509Z,22.67
2017-03-30T10:05:57.566Z,21.70
2017-03-30T10:06:58.001Z,21.90
2017-03-30T10:07:58.123Z,17.63
2017-03-30T10:08:58.153Z,21.35
2017-03-30T10:09:58.220Z,24.20
2017-03-30T10:10:59.001Z,22.12
2017-03-30T10:11:59.370Z,22.70
2017-03-30T10:12:59.420Z,21.02
2017-03-30T10:13:59.468Z,21.08
2017-03-30T10:14:59.693Z,21.53
2017-03-30T10:16:00.483Z,24.52
2017-03-30T10:17:00.831Z,26.38
2017-03-30T10:18:01.616Z,23.97
2017-03-30T10:19:01.721Z,26.22
2017-03-30T10:20:01.788Z,18.37
2017-03-30T10:21:01.888Z,21.35
2017-03-30T10:22:02.238Z,22.50
2017-03-30T10:23:02.319Z,22.98
2017-03-30T10:24:02.329Z,22.93
2017-03-30T10:25:02.473Z,17.42
2017-03-30T10:26:02.514Z,21.13
2017-03-30T10:27:03.009Z,22.68
2017-03-30T10:28:03.058Z,24.12
2017-03-30T10:29:03.089Z,21.33
2017-03-30T10:30:03.186Z,17.95
2017-03-30T10:31:03.228Z,24.22
2017-03-30T10:32:03.667Z,21.63
2017-03-30T10:33:03.721Z,22.78
2017-03-30T10:34:03.891Z,20.12
2017-03-30T10:35:10.716Z,27.68
2017-03-30T10:36:10.866Z,25.02
2017-03-30T10:37:12.010Z,20.77
2017-03-30T10:38:12.128Z,27.10
2017-03-30T10:39:12.295Z,21.57
2017-03-30T10:40:12.407Z,24.38
2017-03-30T10:41:12.459Z,24.90
2017-03-30T10:42:12.981Z,21.93
2017-03-30T10:43:13.055Z,22.17
2017-03-30T10:44:13.118Z,22.93
2017-03-30T10:45:13.227Z,24.75
2017-03-30T10:46:13.323Z,22.27
2017-03-30T10:47:13.816Z,22.93
2017-03-30T10:48:13.926Z,32.83
2017-03-30T10:49:13.979Z,26.27
2017-03-30T10:50:14.072Z,22.83
2017-03-30T10:51:14.158Z,26.28
2017-03-30T10:52:14.675Z,22.68
2017-03-30T10:53:15.623Z,23.05
2017-03-30T10:54:15.664Z,27.22
2017-03-30T10:55:15.728Z,24.58
2017-03-30T10:56:15.807Z,22.07
2017-03-30T10:57:16.248Z,25.38
2017-03-30T10:58:16.308Z,26.47
2017-03-30T10:59:16.329Z,19.93
2017-03-30T11:00:16.397Z,21.15
2017-03-30T11:01:16.778Z,19.13
2017-03-30T11:02:17.239Z,21.97
2017-03-30T11:03:17.581Z,23.05
2017-03-30T11:04:17.752Z,24.58
2017-03-30T11:05:17.699Z,23.02
2017-03-30T11:06:17.800Z,22.57
2017-03-30T11:07:18.375Z,23.17
2017-03-30T11:08:18.418Z,20.27
2017-03-30T11:09:18.550Z,18.17
2017-03-30T11:10:18.561Z,23.78
2017-03-30T11:11:18.582Z,21.22
2017-03-30T11:12:19.394Z,19.93
2017-03-30T11:13:19.442Z,17.37
2017-03-30T11:14:19.610Z,21.12
2017-03-30T11:15:19.672Z,15.62
2017-03-30T11:16:19.728Z,23.82
2017-03-30T11:17:20.149Z,17.15
2017-03-30T11:18:20.224Z,23.18
2017-03-30T11:19:20.224Z,18.85
2017-03-30T11:20:20.240Z,26.47
2017-03-30T11:21:20.278Z,17.98
2017-03-30T11:22:20.919Z,19.85
2017-03-30T11:23:20.956Z,15.68
2017-03-30T11:24:20.997Z,19.50
2017-03-30T11:25:21.033Z,18.37
2017-03-30T11:26:21.053Z,16.32
2017-03-30T11:27:21.383Z,19.17
2017-03-30T11:28:21.435Z,19.57
2017-03-30T11:29:21.484Z,21.47
2017-03-30T11:30:21.646Z,24.47
2017-03-30T11:31:21.746Z,20.38
2017-03-30T11:32:22.296Z,20.60
2017-03-30T11:33:22.408Z,17.00
2017-03-30T11:34:22.443Z,17.58
2017-03-30T11:35:22.611Z,14.32
2017-03-30T11:36:22.650Z,22.92
2017-03-30T11:37:23.161Z,16.17
2017-03-30T11:38:23.185Z,18.78
2017-03-30T11:39:23.232Z,14.80
2017-03-30T11:40:23.255Z,15.62
2017-03-30T11:41:23.349Z,18.28
2017-03-30T11:42:23.975Z,14.62
2017-03-30T11:43:24.158Z,20.58
2017-03-30T11:44:24.225Z,19.23
2017-03-30T11:45:24.658Z,19.87
2017-03-30T11:46:24.857Z,21.77
2017-03-30T11:47:25.917Z,15.57
2017-03-30T11:48:29.101Z,15.33
2017-03-30T11:49:29.175Z,17.80
2017-03-30T11:50:29.259Z,15.42
2017-03-30T11:51:29.311Z,17.38
2017-03-30T11:52:29.760Z,16.48
2017-03-30T11:53:29.921Z,17.93
2017-03-30T11:54:30.000Z,20.28
2017-03-30T11:55:30.072Z,20.62
2017-03-30T11:56:30.182Z,20.05
2017-03-30T11:57:30.563Z,20.13
2017-03-30T11:58:30.777Z,16.10
2017-03-30T11:59:30.846Z,22.55
2017-03-30T12:00:30.897Z,16.93
2017-03-30T12:01:30.933Z,18.70
2017-03-30T12:02:31.410Z,16.60
2017-03-30T12:03:31.447Z,19.08
2017-03-30T12:04:31.466Z,14.32
2017-03-30T12:05:31.531Z,18.45
2017-03-30T12:06:31.539Z,14.78
2017-03-30T12:07:31.950Z,18.88
2017-03-30T12:08:31.995Z,19.07
2017-03-30T12:09:32.050Z,16.47
2017-03-30T12:10:32.178Z,17.53
2017-03-30T12:11:32.331Z,17.40
2017-03-30T12:12:32.806Z,17.18
2017-03-30T12:13:32.833Z,16.22
2017-03-30T12:14:33.038Z,17.53
2017-03-30T12:15:33.062Z,12.97
2017-03-30T12:16:33.114Z,12.83
2017-03-30T12:17:33.455Z,15.80
2017-03-30T12:18:33.469Z,14.97
2017-03-30T12:19:33.526Z,18.53
2017-03-30T12:20:33.583Z,13.20
2017-03-30T12:21:33.604Z,12.50
2017-03-30T12:22:34.036Z,17.58
2017-03-30T12:23:34.081Z,17.38
2017-03-30T12:24:34.139Z,12.13
2017-03-30T12:25:34.364Z,15.55
2017-03-30T12:26:34.478Z,13.97
2017-03-30T12:27:35.001Z,13.40
2017-03-30T12:28:35.038Z,16.47
2017-03-30T12:29:35.218Z,15.93
2017-03-30T12:30:35.231Z,16.15
2017-03-30T12:31:35.332Z,13.17
2017-03-30T12:32:35.681Z,12.57
2017-03-30T12:33:35.772Z,16.47
2017-03-30T12:34:35.762Z,12.77
2017-03-30T12:35:36.428Z,14.18
2017-03-30T12:36:36.635Z,19.23
2017-03-30T12:37:37.742Z,15.77
2017-03-30T12:38:37.758Z,21.37
2017-03-30T12:39:37.779Z,13.78
2017-03-30T12:40:38.574Z,11.05
2017-03-30T12:41:38.582Z,13.73
2017-03-30T12:42:39.751Z,9.88
2017-03-30T12:43:39.840Z,12.78
2017-03-30T12:44:39.978Z,10.12
2017-03-30T12:45:40.028Z,11.65
2017-03-30T12:46:40.266Z,16.00
2017-03-30T12:47:40.712Z,14.05
2017-03-30T12:48:40.735Z,14.83
2017-03-30T12:49:40.821Z,11.47
2017-03-30T12:50:40.831Z,14.47
2017-03-30T12:51:41.619Z,16.32
2017-03-30T12:52:42.299Z,15.60
2017-03-30T12:53:42.351Z,13.63
2017-03-30T12:54:42.445Z,13.00
2017-03-30T12:55:42.446Z,13.33